Terminal Aerodrome Forecast
Issued by NWS

Home | Current Version | Previous Version | Text Only | Print | Product List | Glossary On
Versions: 1 2 3 4 5 6 7 8 9 10 11 12 13 14 15 16 17 18 19 20 21
000
FTUS43 KABR 301700
TAFATY
TAF
KATY 301725Z 3018/3118 35014G24KT 4SM -DZ OVC010
     FM301900 35014G24KT P6SM OVC010
      TEMPO 3019/3022 P6SM SCT008
     FM310000 36010KT P6SM OVC008
     FM310800 VRB06KT P6SM SKC
     FM311600 14012KT P6SM SKC=

USA.gov is the U.S. government's official web portal to all federal, state and local government web resources and services.